Time;durP1;ratioP1;P1;durP2;ratioP2;P2;SDS_P1;SDS_P2;PMS_P1;PMS_P2;Temp;Humidity;BMP_temperature;BMP_pressure;BME280_temperature;BME280_humidity;BME280_pressure;Samples;Min_cycle;Max_cycle;Signal;HPM_P1;HPM_P2
2021/12/03 00:01:28;;;;;;;;;;;;;;;21.40;35.70;101064.25;7289063;19;155658;-51
2021/12/03 00:03:55;;;;;;;;;;;;;;;21.35;35.77;101064.38;7283155;19;151851;-51
2021/12/03 00:06:22;;;;;;;;;;;;;;;21.33;36.01;101059.06;7277125;19;153503;-52
2021/12/03 00:08:49;;;;;;;;;;;;;;;21.29;35.87;101052.41;7282276;19;152456;-51
2021/12/03 00:11:16;;;;;;;;;;;;;;;21.23;35.82;101048.84;7279845;19;152600;-51
2021/12/03 00:13:44;;;;;;;;;;;;;;;21.21;36.17;101053.94;7277071;19;153567;-50
2021/12/03 00:16:12;;;;;;;;;;;;;;;21.18;36.08;101046.13;7276644;19;152397;-55
2021/12/03 00:18:40;;;;;;;;;;;;;;;21.12;35.93;101041.72;7282370;19;152539;-51
2021/12/03 00:21:09;;;;;;;;;;;;;;;21.13;36.07;101039.78;7279967;19;154318;-51
2021/12/03 00:23:36;;;;;;;;;;;;;;;21.10;36.12;101024.34;7287930;19;152143;-51
2021/12/03 00:26:04;;;;;;;;;;;;;;;21.06;36.13;101020.50;7276460;19;153085;-51
2021/12/03 00:28:31;;;;;;;;;;;;;;;21.06;36.46;101022.47;7278335;19;153700;-51
2021/12/03 00:30:58;;;;;;;;;;;;;;;21.02;36.06;101013.00;7279357;19;152736;-52
2021/12/03 00:33:25;;;;;;;;;;;;;;;21.01;36.63;101017.78;7279475;19;153239;-51
2021/12/03 00:35:52;;;;;;;;;;;;;;;20.95;36.63;101007.78;7279642;19;151981;-51
2021/12/03 00:38:20;;;;;;;;;;;;;;;20.89;36.69;101009.03;7283372;19;151785;-50
2021/12/03 00:40:48;;;;;;;;;;;;;;;20.88;36.97;101006.53;7285203;19;153628;-51
2021/12/03 00:43:17;;;;;;;;;;;;;;;20.83;36.63;101001.84;7284694;19;152086;-51
2021/12/03 00:46:05;;;;;;;;;;;;;;;20.78;36.97;100997.16;7292564;19;153429;-52
2021/12/03 00:48:34;;;;;;;;;;;;;;;20.73;37.02;100996.41;7285209;19;152219;-52
2021/12/03 00:51:16;;;;;;;;;;;;;;;20.70;36.86;100988.59;7286135;19;153395;-51
2021/12/03 00:54:01;;;;;;;;;;;;;;;20.63;36.95;100986.19;7284359;19;152758;-52
2021/12/03 00:56:30;;;;;;;;;;;;;;;20.58;36.98;100994.69;7283654;19;151884;-52
2021/12/03 00:58:57;;;;;;;;;;;;;;;20.54;37.08;100996.44;7285491;19;152414;-52
2021/12/03 01:01:46;;;;;;;;;;;;;;;20.51;37.14;100983.03;7284982;19;154636;-50
2021/12/03 01:04:16;;;;;;;;;;;;;;;20.47;36.88;100979.19;7287412;19;151860;-51
2021/12/03 01:07:01;;;;;;;;;;;;;;;20.44;37.12;100976.16;7291071;19;153434;-51
2021/12/03 01:09:46;;;;;;;;;;;;;;;20.40;36.94;100964.69;7285134;19;152040;-51
2021/12/03 01:12:29;;;;;;;;;;;;;;;20.37;37.10;100965.31;7287371;19;153388;-51
2021/12/03 01:15:14;;;;;;;;;;;;;;;20.31;37.20;100955.31;7280644;19;153236;-51
2021/12/03 01:17:48;;;;;;;;;;;;;;;20.29;37.03;100971.63;7271699;19;152476;-51
2021/12/03 01:20:33;;;;;;;;;;;;;;;20.24;37.02;100966.09;7281446;19;152155;-51
2021/12/03 01:23:25;;;;;;;;;;;;;;;20.20;37.49;100960.25;7285360;19;152188;-51
2021/12/03 01:26:06;;;;;;;;;;;;;;;20.16;37.67;100961.19;7282478;19;152388;-51
2021/12/03 01:28:36;;;;;;;;;;;;;;;20.12;37.21;100957.31;7286785;19;152108;-51
2021/12/03 01:31:03;;;;;;;;;;;;;;;20.07;37.60;100952.63;7294020;19;153938;-51
2021/12/03 01:33:30;;;;;;;;;;;;;;;20.04;37.60;100935.56;7286470;19;153411;-51
2021/12/03 01:35:57;;;;;;;;;;;;;;;19.99;37.79;100926.09;7286490;19;153456;-51
2021/12/03 01:38:24;;;;;;;;;;;;;;;19.97;37.95;100924.75;7287083;19;151962;-51
2021/12/03 01:40:51;;;;;;;;;;;;;;;19.94;37.89;100917.75;7284897;19;153320;-51
2021/12/03 01:43:23;;;;;;;;;;;;;;;19.91;37.88;100915.56;7286115;19;153756;-51
2021/12/03 01:45:54;;;;;;;;;;;;;;;19.88;38.12;100921.78;7287058;19;152011;-51
2021/12/03 01:48:21;;;;;;;;;;;;;;;19.83;38.11;100918.22;7286415;19;153037;-51
2021/12/03 01:50:50;;;;;;;;;;;;;;;19.80;37.71;100905.66;7285832;19;152884;-51
2021/12/03 01:53:18;;;;;;;;;;;;;;;19.78;37.94;100902.31;7293979;19;151786;-51
2021/12/03 01:55:46;;;;;;;;;;;;;;;19.75;37.76;100902.09;7283636;19;154149;-51
2021/12/03 01:58:13;;;;;;;;;;;;;;;19.72;38.24;100895.13;7287017;19;151804;-51
2021/12/03 02:00:42;;;;;;;;;;;;;;;19.72;37.90;100900.72;7288466;19;152660;-51
2021/12/03 02:03:10;;;;;;;;;;;;;;;19.64;37.98;100900.59;7285654;19;153904;-51
2021/12/03 02:05:37;;;;;;;;;;;;;;;19.62;38.13;100889.69;7283549;19;151968;-50
2021/12/03 02:08:04;;;;;;;;;;;;;;;19.59;38.42;100889.44;7286801;19;153342;-50
2021/12/03 02:10:31;;;;;;;;;;;;;;;19.57;38.33;100888.94;7287325;19;153500;-51
2021/12/03 02:12:58;;;;;;;;;;;;;;;19.54;38.49;100890.34;7285268;19;151894;-51
2021/12/03 02:15:25;;;;;;;;;;;;;;;19.53;38.26;100905.53;7292999;19;153430;-51
2021/12/03 02:17:52;;;;;;;;;;;;;;;19.49;38.55;100890.44;7286769;19;151598;-51
2021/12/03 02:20:19;;;;;;;;;;;;;;;19.46;38.26;100883.47;7286625;19;153785;-52
2021/12/03 02:22:46;;;;;;;;;;;;;;;19.46;38.63;100889.06;7283082;19;153204;-51
2021/12/03 02:25:16;;;;;;;;;;;;;;;19.39;38.53;100890.56;7285614;19;152022;-51
2021/12/03 02:27:42;;;;;;;;;;;;;;;19.38;38.63;100883.28;7285465;19;153240;-51
2021/12/03 02:30:10;;;;;;;;;;;;;;;19.36;38.49;100894.78;7284804;19;153863;-51
2021/12/03 02:32:38;;;;;;;;;;;;;;;19.34;38.58;100890.63;7286703;19;152132;-51
2021/12/03 02:35:05;;;;;;;;;;;;;;;19.31;38.81;100888.41;7285790;19;153123;-51
2021/12/03 02:37:33;;;;;;;;;;;;;;;19.27;38.80;100874.19;7286350;19;152227;-51
2021/12/03 02:40:00;;;;;;;;;;;;;;;19.26;38.85;100877.31;7285078;19;152914;-51
2021/12/03 02:42:26;;;;;;;;;;;;;;;19.22;38.60;100868.66;7284425;19;153930;-51
2021/12/03 02:44:53;;;;;;;;;;;;;;;19.19;38.81;100868.44;7284944;19;151855;-51
2021/12/03 02:47:20;;;;;;;;;;;;;;;19.18;39.23;100856.38;7286156;19;152977;-51
2021/12/03 02:49:47;;;;;;;;;;;;;;;19.16;39.27;100855.03;7285150;19;154156;-51
2021/12/03 02:52:14;;;;;;;;;;;;;;;19.12;38.97;100837.19;7284838;19;151841;-50
2021/12/03 02:54:41;;;;;;;;;;;;;;;19.09;39.24;100835.78;7283791;19;152515;-51
2021/12/03 02:57:07;;;;;;;;;;;;;;;19.07;39.35;100821.28;7282733;19;153321;-51
2021/12/03 02:59:34;;;;;;;;;;;;;;;19.04;39.22;100817.09;7291759;19;151685;-50
2021/12/03 03:02:02;;;;;;;;;;;;;;;19.02;39.36;100810.16;7283513;19;154029;-51
2021/12/03 03:04:49;;;;;;;;;;;;;;;18.98;39.18;100804.31;7284412;19;151718;-50
2021/12/03 03:07:16;;;;;;;;;;;;;;;18.95;38.98;100799.31;7281753;19;152837;-51
2021/12/03 03:09:44;;;;;;;;;;;;;;;18.93;39.27;100803.56;7282373;19;153446;-51
2021/12/03 03:12:12;;;;;;;;;;;;;;;18.92;39.35;100799.09;7283537;19;152217;-51
2021/12/03 03:14:46;;;;;;;;;;;;;;;18.90;39.40;100790.13;7285351;19;153385;-51
2021/12/03 03:17:13;;;;;;;;;;;;;;;18.87;39.30;100777.59;7280907;19;154630;-50
2021/12/03 03:19:40;;;;;;;;;;;;;;;18.85;39.22;100777.06;7292340;19;151951;-50
2021/12/03 03:22:07;;;;;;;;;;;;;;;18.83;39.59;100778.50;7284589;19;153307;-50
2021/12/03 03:24:34;;;;;;;;;;;;;;;18.77;39.61;100777.72;7285081;19;152415;-51
2021/12/03 03:27:01;;;;;;;;;;;;;;;18.77;39.44;100769.34;7283626;19;152487;-51
2021/12/03 03:29:28;;;;;;;;;;;;;;;18.75;39.34;100765.19;7282275;19;152669;-52
2021/12/03 03:31:55;;;;;;;;;;;;;;;18.70;39.80;100763.28;7284732;19;152153;-50
2021/12/03 03:34:21;;;;;;;;;;;;;;;18.69;39.80;100753.22;7284495;19;152605;-51
2021/12/03 03:36:48;;;;;;;;;;;;;;;18.66;39.89;100751.03;7281690;19;153256;-51
2021/12/03 03:39:15;;;;;;;;;;;;;;;18.64;39.64;100736.50;7284106;19;152195;-51
2021/12/03 03:41:42;;;;;;;;;;;;;;;18.65;39.97;100743.75;7288744;19;153664;-51
2021/12/03 03:44:09;;;;;;;;;;;;;;;18.62;40.18;100733.97;7283949;19;151897;-51
2021/12/03 03:46:38;;;;;;;;;;;;;;;18.58;40.18;100727.31;7284151;19;152631;-51
2021/12/03 03:49:05;;;;;;;;;;;;;;;18.58;40.23;100726.50;7279812;19;153973;-51
2021/12/03 03:51:32;;;;;;;;;;;;;;;18.56;40.06;100718.44;7283018;19;151772;-51
2021/12/03 03:53:59;;;;;;;;;;;;;;;18.55;39.86;100707.53;7283459;19;153557;-51
2021/12/03 03:56:26;;;;;;;;;;;;;;;18.54;40.07;100698.28;7281097;19;153155;-51
2021/12/03 03:58:53;;;;;;;;;;;;;;;18.52;40.52;100700.53;7284624;19;151768;-51
2021/12/03 04:01:20;;;;;;;;;;;;;;;18.50;40.22;100700.00;7281959;19;153466;-51
2021/12/03 04:03:47;;;;;;;;;;;;;;;18.46;40.42;100690.53;7288646;19;153280;-51
2021/12/03 04:06:17;;;;;;;;;;;;;;;18.41;40.38;100684.19;7281215;19;153625;-51
2021/12/03 04:08:51;;;;;;;;;;;;;;;18.42;40.44;100683.91;7281092;19;153235;-51
2021/12/03 04:11:22;;;;;;;;;;;;;;;18.38;40.21;100682.84;7283574;19;151924;-50
2021/12/03 04:13:50;;;;;;;;;;;;;;;18.34;40.64;100680.94;7289402;19;153429;-50
2021/12/03 04:16:17;;;;;;;;;;;;;;;18.34;40.72;100670.59;7287673;19;153970;-50
2021/12/03 04:18:44;;;;;;;;;;;;;;;18.28;40.46;100670.94;7287169;19;152134;-51
2021/12/03 04:21:10;;;;;;;;;;;;;;;18.30;40.53;100652.75;7290754;19;152667;-51
2021/12/03 04:23:37;;;;;;;;;;;;;;;18.27;40.50;100655.28;7288089;19;153372;-50
2021/12/03 04:26:04;;;;;;;;;;;;;;;18.25;41.05;100657.56;7296045;19;152116;-51
2021/12/03 04:28:31;;;;;;;;;;;;;;;18.27;40.60;100646.91;7287691;19;153799;-51
2021/12/03 04:30:58;;;;;;;;;;;;;;;18.29;40.56;100634.28;7289489;19;151693;-51
2021/12/03 04:33:25;;;;;;;;;;;;;;;18.34;40.49;100630.59;7289068;19;153586;-51
2021/12/03 04:35:52;;;;;;;;;;;;;;;18.38;40.56;100626.06;7286411;19;153928;-51
2021/12/03 04:38:19;;;;;;;;;;;;;;;18.44;40.80;100631.25;7286699;19;151762;-51
2021/12/03 04:40:46;;;;;;;;;;;;;;;18.49;40.92;100630.34;7289141;19;152905;-51
2021/12/03 04:43:13;;;;;;;;;;;;;;;18.53;41.44;100623.06;7287640;19;154067;-51
2021/12/03 04:45:39;;;;;;;;;;;;;;;18.56;41.71;100612.09;7288140;19;151835;-51
2021/12/03 04:48:06;;;;;;;;;;;;;;;18.63;41.79;100612.53;7295407;19;153383;-51
2021/12/03 04:50:35;;;;;;;;;;;;;;;18.70;41.69;100608.53;7289947;19;152019;-51
2021/12/03 04:53:02;;;;;;;;;;;;;;;18.76;42.25;100604.53;7288741;19;153321;-51
2021/12/03 04:55:29;;;;;;;;;;;;;;;18.82;42.03;100595.72;7285434;19;153780;-51
2021/12/03 04:57:55;;;;;;;;;;;;;;;18.88;41.85;100583.31;7287525;19;152018;-51
2021/12/03 05:00:27;;;;;;;;;;;;;;;18.95;41.88;100580.94;7287606;19;153404;-51
2021/12/03 05:02:55;;;;;;;;;;;;;;;19.03;42.05;100580.22;7287634;19;153341;-51
2021/12/03 05:05:24;;;;;;;;;;;;;;;19.09;41.94;100576.22;7288814;19;152423;-51
2021/12/03 05:07:58;;;;;;;;;;;;;;;19.17;41.56;100576.66;7285364;19;152659;-51
2021/12/03 05:10:28;;;;;;;;;;;;;;;19.24;41.32;100575.09;7295263;19;151800;-51
2021/12/03 05:12:57;;;;;;;;;;;;;;;19.31;41.29;100560.69;7288476;19;153143;-51
2021/12/03 05:15:29;;;;;;;;;;;;;;;19.37;41.53;100557.47;7286213;19;153549;-51
2021/12/03 05:17:56;;;;;;;;;;;;;;;19.43;40.83;100544.22;7284228;19;152014;-51
2021/12/03 05:20:23;;;;;;;;;;;;;;;19.49;40.90;100540.19;7288215;19;153401;-51
2021/12/03 05:22:51;;;;;;;;;;;;;;;19.53;41.49;100536.44;7285256;19;153392;-50
2021/12/03 05:25:19;;;;;;;;;;;;;;;19.60;41.38;100524.00;7287750;19;151851;-51
2021/12/03 05:27:46;;;;;;;;;;;;;;;19.66;41.57;100514.34;7287947;19;152612;-51
2021/12/03 05:30:13;;;;;;;;;;;;;;;19.71;41.22;100514.22;7293713;19;154121;-51
2021/12/03 05:32:39;;;;;;;;;;;;;;;19.76;41.17;100512.13;7288582;19;152658;-52
2021/12/03 05:35:07;;;;;;;;;;;;;;;19.80;41.17;100501.13;7286264;19;153502;-51
2021/12/03 05:37:34;;;;;;;;;;;;;;;19.84;41.04;100491.78;7283452;19;152155;-51
2021/12/03 05:40:01;;;;;;;;;;;;;;;19.90;41.20;100495.28;7287492;19;151853;-51
2021/12/03 05:42:27;;;;;;;;;;;;;;;19.95;41.46;100483.94;7285699;19;153190;-51
2021/12/03 05:44:54;;;;;;;;;;;;;;;20.01;41.30;100491.09;7288331;19;151810;-50
2021/12/03 05:47:21;;;;;;;;;;;;;;;20.05;40.89;100478.09;7286512;19;154061;-51
2021/12/03 05:49:48;;;;;;;;;;;;;;;20.10;41.08;100480.78;7286366;19;152417;-51
2021/12/03 05:52:15;;;;;;;;;;;;;;;20.14;40.99;100475.38;7294740;19;151731;-51
2021/12/03 05:54:42;;;;;;;;;;;;;;;20.18;40.75;100474.41;7286383;19;153286;-51
2021/12/03 05:57:09;;;;;;;;;;;;;;;20.23;40.60;100462.25;7285945;19;152010;-51
2021/12/03 05:59:35;;;;;;;;;;;;;;;20.26;41.07;100448.41;7285929;19;153285;-50
2021/12/03 06:02:02;;;;;;;;;;;;;;;20.31;40.94;100451.13;7286585;19;153218;-51
2021/12/03 06:04:30;;;;;;;;;;;;;;;20.36;40.95;100445.38;7287412;19;152049;-52
2021/12/03 06:06:57;;;;;;;;;;;;;;;20.39;40.59;100443.94;7285750;19;153417;-51
2021/12/03 06:09:24;;;;;;;;;;;;;;;20.44;40.75;100440.16;7285262;19;154368;-51
2021/12/03 06:11:50;;;;;;;;;;;;;;;20.47;40.96;100440.34;7285302;19;152061;-51
2021/12/03 06:14:17;;;;;;;;;;;;;;;20.51;41.21;100437.72;7293616;19;153916;-51
2021/12/03 06:16:44;;;;;;;;;;;;;;;20.56;41.19;100429.16;7286666;19;151839;-51
2021/12/03 06:19:11;;;;;;;;;;;;;;;20.59;41.01;100420.94;7284917;19;153559;-52
2021/12/03 06:21:38;;;;;;;;;;;;;;;20.62;40.94;100414.69;7286012;19;153009;-51
2021/12/03 06:24:05;;;;;;;;;;;;;;;20.66;40.91;100401.66;7284850;19;151817;-51
2021/12/03 06:26:31;;;;;;;;;;;;;;;20.69;40.71;100386.97;7286481;19;152417;-52
2021/12/03 06:28:58;;;;;;;;;;;;;;;20.73;40.64;100378.72;7285194;19;153771;-51
2021/12/03 06:31:25;;;;;;;;;;;;;;;20.76;40.34;100378.91;7286367;19;151712;-51
2021/12/03 06:33:52;;;;;;;;;;;;;;;20.78;40.66;100373.81;7285943;19;153687;-51
2021/12/03 06:36:19;;;;;;;;;;;;;;;20.83;40.46;100378.44;7291631;19;154564;-51
2021/12/03 06:38:45;;;;;;;;;;;;;;;20.86;40.35;100375.81;7283837;19;152741;-51
2021/12/03 06:41:12;;;;;;;;;;;;;;;20.90;40.16;100363.91;7284966;19;153256;-52
2021/12/03 06:43:39;;;;;;;;;;;;;;;20.91;40.13;100363.59;7282733;19;151842;-52
2021/12/03 06:46:06;;;;;;;;;;;;;;;20.96;40.42;100357.84;7285900;19;153112;-52
2021/12/03 06:48:32;;;;;;;;;;;;;;;21.00;40.52;100355.19;7284266;19;153932;-52
2021/12/03 06:50:59;;;;;;;;;;;;;;;21.02;40.72;100347.28;7285472;19;151929;-52
2021/12/03 06:53:37;;;;;;;;;;;;;;;21.04;40.01;100345.78;7283448;19;152711;-52
2021/12/03 06:56:05;;;;;;;;;;;;;;;21.06;40.07;100337.88;7284595;19;153397;-52
2021/12/03 06:58:32;;;;;;;;;;;;;;;21.10;40.06;100338.88;7290019;19;151978;-52
2021/12/03 07:00:59;;;;;;;;;;;;;;;21.13;39.84;100343.03;7284431;19;153930;-51
2021/12/03 07:03:26;;;;;;;;;;;;;;;21.15;40.18;100332.31;7285197;19;151717;-51
2021/12/03 07:05:54;;;;;;;;;;;;;;;21.18;40.13;100331.66;7284282;19;153625;-51
2021/12/03 07:08:21;;;;;;;;;;;;;;;21.21;40.08;100339.44;7283926;19;153284;-51
2021/12/03 07:10:48;;;;;;;;;;;;;;;21.24;40.11;100338.78;7285697;19;151893;-52
2021/12/03 07:13:14;;;;;;;;;;;;;;;21.26;40.02;100334.47;7284962;19;152742;-51
2021/12/03 07:15:41;;;;;;;;;;;;;;;21.30;40.03;100329.03;7284042;19;153235;-52
2021/12/03 07:18:08;;;;;;;;;;;;;;;21.34;40.60;100323.59;7291625;19;152350;-51
2021/12/03 07:20:37;;;;;;;;;;;;;;;21.38;40.12;100314.16;7282408;19;153305;-52
2021/12/03 07:23:04;;;;;;;;;;;;;;;21.41;40.07;100316.31;7285621;19;151618;-52
2021/12/03 07:25:31;;;;;;;;;;;;;;;21.44;39.94;100329.69;7285693;19;152640;-52
2021/12/03 07:27:58;;;;;;;;;;;;;;;21.47;39.82;100331.88;7284139;19;152265;-51
2021/12/03 07:30:30;;;;;;;;;;;;;;;21.49;39.63;100329.53;7283580;19;151572;-52
2021/12/03 07:32:58;;;;;;;;;;;;;;;21.51;39.63;100324.41;7282322;19;153529;-52
2021/12/03 07:35:25;;;;;;;;;;;;;;;21.53;39.22;100319.28;7284024;19;153919;-52
2021/12/03 07:37:51;;;;;;;;;;;;;;;21.56;39.47;100323.44;7284152;19;151877;-52
2021/12/03 07:40:18;;;;;;;;;;;;;;;21.58;39.23;100315.47;7291267;19;153245;-51
2021/12/03 07:42:45;;;;;;;;;;;;;;;21.60;38.79;100305.56;7284973;19;151788;-52
2021/12/03 07:45:15;;;;;;;;;;;;;;;21.62;38.87;100291.19;7283888;19;153351;-52
2021/12/03 07:47:42;;;;;;;;;;;;;;;21.65;39.15;100304.56;7282495;19;153442;-52
2021/12/03 07:50:10;;;;;;;;;;;;;;;21.66;38.64;100297.81;7284092;19;151975;-52
2021/12/03 07:52:37;;;;;;;;;;;;;;;21.66;38.94;100298.63;7284338;19;152957;-52
2021/12/03 07:55:04;;;;;;;;;;;;;;;21.58;37.86;100302.25;7281466;19;153909;-52
2021/12/03 07:57:31;;;;;;;;;;;;;;;21.15;36.39;100292.97;7283878;19;151802;-52
2021/12/03 07:59:58;;;;;;;;;;;;;;;20.96;37.45;100293.25;7283856;19;153548;-53
2021/12/03 08:02:26;;;;;;;;;;;;;;;21.08;37.20;100284.16;7290218;19;151940;-53
2021/12/03 08:04:55;;;;;;;;;;;;;;;21.13;37.14;100284.88;7281641;19;152875;-52
2021/12/03 08:07:22;;;;;;;;;;;;;;;21.19;37.65;100285.56;7279612;19;153012;-53
2021/12/03 08:09:49;;;;;;;;;;;;;;;21.20;37.29;100275.97;7284417;19;151627;-53
2021/12/03 08:12:16;;;;;;;;;;;;;;;21.23;37.73;100273.31;7283259;19;153670;-53
2021/12/03 08:14:43;;;;;;;;;;;;;;;21.26;37.51;100280.25;7283241;19;153949;-53
2021/12/03 08:17:10;;;;;;;;;;;;;;;21.27;37.80;100270.66;7284145;19;151695;-53
2021/12/03 08:19:37;;;;;;;;;;;;;;;21.28;37.60;100263.91;7280925;19;152774;-53
2021/12/03 08:22:04;;;;;;;;;;;;;;;21.30;37.65;100259.59;7282869;19;154356;-52
2021/12/03 08:24:30;;;;;;;;;;;;;;;21.31;37.82;100249.19;7290680;19;151567;-52
2021/12/03 08:26:57;;;;;;;;;;;;;;;21.32;37.69;100256.47;7279630;19;153792;-53
2021/12/03 08:29:30;;;;;;;;;;;;;;;21.38;37.61;100260.78;7282881;19;151896;-52
2021/12/03 08:32:03;;;;;;;;;;;;;;;21.45;37.75;100254.63;7283092;19;153035;-53
2021/12/03 08:34:43;;;;;;;;;;;;;;;21.42;38.00;100252.50;7281287;19;154109;-53
2021/12/03 08:37:10;;;;;;;;;;;;;;;21.40;37.96;100241.56;7281586;19;153243;-53
2021/12/03 08:39:37;;;;;;;;;;;;;;;21.40;37.64;100247.19;7278986;19;153455;-52
2021/12/03 08:42:06;;;;;;;;;;;;;;;21.39;37.89;100237.13;7282152;19;153247;-53
2021/12/03 08:44:33;;;;;;;;;;;;;;;21.42;37.98;100235.63;7281469;19;151978;-53
2021/12/03 08:47:05;;;;;;;;;;;;;;;21.41;37.66;100240.44;7289626;19;152054;-53
2021/12/03 08:49:46;;;;;;;;;;;;;;;21.44;37.57;100248.19;7280148;19;153343;-52
2021/12/03 08:54:55;;;;;;;;;;;;;;;21.44;37.77;100245.38;7278700;19;154104;-52
2021/12/03 08:57:31;;;;;;;;;;;;;;;21.46;37.57;100248.69;7280213;19;151816;-52
2021/12/03 09:00:00;;;;;;;;;;;;;;;21.46;37.58;100242.25;7283672;19;154507;-53
2021/12/03 09:02:27;;;;;;;;;;;;;;;21.49;37.84;100242.41;7284926;19;154233;-54
2021/12/03 09:04:54;;;;;;;;;;;;;;;21.53;37.51;100229.31;7284820;19;151696;-53
2021/12/03 09:07:21;;;;;;;;;;;;;;;21.58;37.94;100228.31;7284691;19;153543;-53
2021/12/03 09:09:48;;;;;;;;;;;;;;;21.59;37.54;100225.19;7293659;19;153485;-53
2021/12/03 09:12:15;;;;;;;;;;;;;;;21.62;37.50;100232.94;7286362;19;152709;-52
2021/12/03 09:14:45;;;;;;;;;;;;;;;21.66;37.99;100224.69;7283708;19;154210;-52
2021/12/03 09:22:35;;;;;;;;;;;;;;;21.74;37.58;100218.22;7284701;19;153126;-52
2021/12/03 09:25:02;;;;;;;;;;;;;;;21.77;37.64;100219.53;7285924;19;151823;-52
2021/12/03 09:27:29;;;;;;;;;;;;;;;21.79;37.48;100220.88;7285645;19;152836;-52
2021/12/03 09:29:57;;;;;;;;;;;;;;;21.81;37.42;100218.53;7292831;19;153322;-52
2021/12/03 09:32:30;;;;;;;;;;;;;;;21.83;37.93;100216.22;7283533;19;153266;-53
2021/12/03 09:34:58;;;;;;;;;;;;;;;21.86;37.86;100220.34;7284841;19;153319;-51
2021/12/03 09:37:25;;;;;;;;;;;;;;;21.87;37.85;100207.94;7283765;19;151885;-51
2021/12/03 09:39:52;;;;;;;;;;;;;;;21.94;38.06;100203.47;7283032;19;153384;-51
2021/12/03 09:42:20;;;;;;;;;;;;;;;21.89;38.04;100200.00;7285663;19;153125;-51
2021/12/03 09:44:50;;;;;;;;;;;;;;;21.93;38.40;100206.63;7287180;19;151858;-51
2021/12/03 09:47:18;;;;;;;;;;;;;;;21.88;38.66;100203.97;7287348;19;153498;-52
2021/12/03 09:49:48;;;;;;;;;;;;;;;21.82;38.48;100208.94;7286568;19;154405;-51
2021/12/03 09:52:24;;;;;;;;;;;;;;;21.79;38.54;100214.41;7295647;19;151585;-51
2021/12/03 09:54:55;;;;;;;;;;;;;;;21.77;38.96;100197.03;7283114;19;153891;-51
2021/12/03 09:57:34;;;;;;;;;;;;;;;21.73;38.66;100194.91;7287942;19;151757;-51
2021/12/03 10:03:08;;;;;;;;;;;;;;;21.68;38.89;100202.69;7286020;19;154073;-52
2021/12/03 10:12:13;;;;;;;;;;;;;;;21.58;38.89;100188.97;7285169;19;153152;-51
2021/12/03 10:17:22;;;;;;;;;;;;;;;21.50;38.78;100201.06;7293238;19;153208;-52
2021/12/03 10:19:57;;;;;;;;;;;;;;;21.48;38.87;100195.78;7284403;19;151776;-52
2021/12/03 10:22:49;;;;;;;;;;;;;;;21.45;38.97;100185.19;7286073;19;153213;-52
2021/12/03 10:28:14;;;;;;;;;;;;;;;21.36;38.71;100178.75;7286173;19;151656;-53
2021/12/03 10:32:00;;;;;;;;;;;;;;;21.34;39.15;100183.91;7285673;19;152205;-53
2021/12/03 10:45:15;;;;;;;;;;;;;;;21.31;39.24;100159.25;7283506;19;152597;-53
2021/12/03 11:01:42;;;;;;;;;;;;;;;21.24;39.39;100145.75;7285467;19;153413;-53
2021/12/03 11:46:25;;;;;;;;;;;;;;;20.87;39.75;100115.50;7281976;19;151867;-53
2021/12/03 12:18:58;;;;;;;;;;;;;;;20.49;40.99;100103.28;7289015;19;153402;-53
2021/12/03 12:58:20;;;;;;;;;;;;;;;20.11;41.68;100073.00;7287391;19;152511;-53
2021/12/03 14:09:07;;;;;;;;;;;;;;;21.26;39.83;99999.28;7285348;19;153663;-53
2021/12/03 14:45:46;;;;;;;;;;;;;;;21.39;39.54;99977.78;7285331;19;152856;-53
2021/12/03 14:48:33;;;;;;;;;;;;;;;21.37;39.51;99977.28;7284259;19;152023;-53
2021/12/03 14:53:57;;;;;;;;;;;;;;;21.36;39.95;99982.06;7283703;19;154001;-53
2021/12/03 14:56:27;;;;;;;;;;;;;;;21.37;39.83;99991.31;7282924;19;151914;-53
2021/12/03 14:59:30;;;;;;;;;;;;;;;21.39;39.88;99995.47;7283248;19;153280;-53
2021/12/03 15:02:06;;;;;;;;;;;;;;;21.43;39.94;100006.84;7275907;19;154321;-53
2021/12/03 15:09:41;;;;;;;;;;;;;;;21.51;39.90;99994.72;7291070;19;154028;-53
2021/12/03 15:23:03;;;;;;;;;;;;;;;21.63;39.83;99950.66;7282472;19;154022;-54
2021/12/03 15:25:46;;;;;;;;;;;;;;;21.63;39.52;99945.03;7283666;19;151831;-53
2021/12/03 15:31:43;;;;;;;;;;;;;;;21.67;39.62;99948.00;7282123;19;154056;-53
2021/12/03 15:34:21;;;;;;;;;;;;;;;21.65;39.67;99944.72;7287082;19;152412;-52
2021/12/03 15:37:11;;;;;;;;;;;;;;;21.65;39.68;99961.59;7273481;19;154715;-53
2021/12/03 16:03:43;;;;;;;;;;;;;;;21.51;39.60;99952.56;7282211;19;153580;-53
2021/12/03 16:08:44;;;;;;;;;;;;;;;21.49;39.83;99943.63;7281023;19;151777;-53
2021/12/03 16:11:23;;;;;;;;;;;;;;;21.46;39.68;99939.53;7282034;19;153559;-53
2021/12/03 16:51:47;;;;;;;;;;;;;;;21.54;39.73;99921.78;7281598;19;151957;-51
2021/12/03 16:54:37;;;;;;;;;;;;;;;21.54;39.87;99909.72;7280727;19;153047;-51
2021/12/03 16:57:07;;;;;;;;;;;;;;;21.53;39.66;99908.09;7272638;19;154631;-51
2021/12/03 16:59:34;;;;;;;;;;;;;;;21.52;40.20;99918.50;7281528;19;152320;-51
2021/12/03 17:02:08;;;;;;;;;;;;;;;21.51;39.84;99911.25;7278820;19;152763;-51
2021/12/03 17:10:33;;;;;;;;;;;;;;;21.49;39.96;99895.84;7275718;19;153928;-52
2021/12/03 17:13:27;;;;;;;;;;;;;;;21.47;39.74;99890.59;7281575;19;152143;-53
2021/12/03 17:58:20;;;;;;;;;;;;;;;21.57;40.17;99872.53;7287563;19;152790;-51
2021/12/03 18:00:57;;;;;;;;;;;;;;;21.56;40.23;99857.63;7284706;19;151919;-54
2021/12/03 18:48:42;;;;;;;;;;;;;;;21.35;41.47;99820.25;7285942;19;151952;-52
2021/12/03 18:56:17;;;;;;;;;;;;;;;21.27;41.86;99830.38;7282122;19;152290;-52
2021/12/03 18:58:45;;;;;;;;;;;;;;;21.24;41.48;99810.59;7280424;19;153997;-52
2021/12/03 19:01:13;;;;;;;;;;;;;;;21.19;41.84;99810.78;7281886;19;151811;-52
2021/12/03 19:06:19;;;;;;;;;;;;;;;21.12;41.91;99797.25;7282140;19;152158;-52
2021/12/03 19:08:53;;;;;;;;;;;;;;;21.08;42.04;99810.31;7283640;19;152980;-53
2021/12/03 19:11:24;;;;;;;;;;;;;;;21.04;42.28;99803.72;7282612;19;154017;-52
2021/12/03 19:13:52;;;;;;;;;;;;;;;21.06;42.10;99795.81;7284469;19;152327;-52
2021/12/03 19:16:24;;;;;;;;;;;;;;;21.01;41.98;99803.59;7285271;19;153785;-51
2021/12/03 19:18:53;;;;;;;;;;;;;;;20.99;42.34;99800.28;7282987;19;152445;-52
2021/12/03 19:21:24;;;;;;;;;;;;;;;20.96;42.53;99792.56;7284908;19;151824;-52
2021/12/03 19:23:52;;;;;;;;;;;;;;;20.96;42.64;99792.56;7282092;19;153972;-52
2021/12/03 19:26:20;;;;;;;;;;;;;;;20.95;42.77;99785.28;7290417;19;154588;-52
2021/12/03 19:28:49;;;;;;;;;;;;;;;20.87;42.95;99789.81;7284795;19;153882;-52
2021/12/03 19:31:17;;;;;;;;;;;;;;;20.86;42.70;99788.97;7283269;19;153836;-52
2021/12/03 19:33:43;;;;;;;;;;;;;;;20.85;42.28;99790.13;7283694;19;152611;-52
2021/12/03 19:36:13;;;;;;;;;;;;;;;20.85;42.56;99792.13;7284563;19;152588;-51
2021/12/03 19:38:40;;;;;;;;;;;;;;;20.84;42.64;99784.88;7282155;19;154095;-51
2021/12/03 19:41:15;;;;;;;;;;;;;;;20.77;42.56;99774.16;7277953;19;151774;-52
2021/12/03 19:43:50;;;;;;;;;;;;;;;20.76;42.45;99777.31;7276369;19;153933;-52
2021/12/03 19:46:20;;;;;;;;;;;;;;;20.71;42.83;99778.34;7282160;19;153079;-52
2021/12/03 19:48:56;;;;;;;;;;;;;;;20.72;42.72;99767.91;7291268;19;151729;-52
2021/12/03 19:51:26;;;;;;;;;;;;;;;20.67;42.99;99762.53;7281973;19;154089;-52
2021/12/03 19:56:22;;;;;;;;;;;;;;;20.62;43.15;99771.94;7282812;19;153105;-52
2021/12/03 19:58:49;;;;;;;;;;;;;;;20.63;43.07;99765.16;7282060;19;153084;-52
2021/12/03 20:01:16;;;;;;;;;;;;;;;20.61;43.34;99756.28;7281044;19;151852;-52
2021/12/03 20:03:43;;;;;;;;;;;;;;;20.66;42.66;99753.28;7279960;19;152970;-52
2021/12/03 20:06:11;;;;;;;;;;;;;;;20.69;42.65;99746.16;7262700;19;153576;-52
2021/12/03 20:08:37;;;;;;;;;;;;;;;20.70;42.94;99745.00;7283630;19;152063;-52
2021/12/03 20:11:07;;;;;;;;;;;;;;;20.73;42.83;99744.31;7289479;19;152719;-52